createdAt,value
2018-09-25T00:00:08.970Z,5.30
2018-09-25T00:02:42.748Z,5.30
2018-09-25T00:05:16.524Z,5.20
2018-09-25T00:07:50.312Z,5.20
2018-09-25T00:10:24.133Z,5.20
2018-09-25T00:12:57.950Z,5.20
2018-09-25T00:15:31.715Z,5.20
2018-09-25T00:18:05.530Z,5.10
2018-09-25T00:20:39.458Z,5.00
2018-09-25T00:23:13.334Z,5.00
2018-09-25T00:25:47.226Z,5.00
2018-09-25T00:28:20.938Z,5.00
2018-09-25T00:30:54.556Z,5.00
2018-09-25T00:33:28.193Z,4.90
2018-09-25T00:36:01.960Z,5.00
2018-09-25T00:38:35.658Z,4.90
2018-09-25T00:41:09.267Z,4.90
2018-09-25T00:43:43.054Z,4.90
2018-09-25T00:46:16.689Z,4.90
2018-09-25T00:48:50.596Z,4.80
2018-09-25T00:51:24.424Z,4.70
2018-09-25T00:53:58.157Z,4.80
2018-09-25T00:56:31.838Z,4.70
2018-09-25T00:59:05.749Z,4.70
2018-09-25T01:01:39.522Z,4.80
2018-09-25T01:04:13.277Z,4.70
2018-09-25T01:06:47.152Z,4.70
2018-09-25T01:09:21.072Z,4.60
2018-09-25T01:11:54.901Z,4.70
2018-09-25T01:14:28.581Z,4.70
2018-09-25T01:17:02.553Z,4.60
2018-09-25T01:19:36.385Z,4.60
2018-09-25T01:22:10.107Z,4.70
2018-09-25T01:24:43.944Z,4.60
2018-09-25T01:27:17.635Z,4.60
2018-09-25T01:29:51.354Z,4.60
2018-09-25T01:32:25.033Z,4.50
2018-09-25T01:34:58.714Z,4.50
2018-09-25T01:37:32.323Z,4.50
2018-09-25T01:40:06.017Z,4.50
2018-09-25T01:42:39.734Z,4.60
2018-09-25T01:45:13.472Z,4.50
2018-09-25T01:47:47.241Z,4.40
2018-09-25T01:50:21.034Z,4.50
2018-09-25T01:52:54.833Z,4.40
2018-09-25T01:55:28.638Z,4.40
2018-09-25T01:58:02.384Z,4.40
2018-09-25T02:03:40.942Z,4.40
2018-09-25T02:06:14.779Z,4.30
2018-09-25T02:08:48.580Z,4.30
2018-09-25T02:11:22.451Z,4.30
2018-09-25T02:13:56.260Z,4.30
2018-09-25T02:16:30.058Z,4.30
2018-09-25T02:19:03.763Z,4.20
2018-09-25T02:21:37.536Z,4.20
2018-09-25T02:24:11.794Z,4.20
2018-09-25T02:26:45.718Z,4.10
2018-09-25T02:29:19.756Z,4.10
2018-09-25T02:31:53.546Z,4.10
2018-09-25T02:34:27.237Z,4.10
2018-09-25T02:37:00.991Z,4.10
2018-09-25T02:39:34.754Z,4.10
2018-09-25T02:42:08.500Z,4.00
2018-09-25T02:44:42.184Z,4.10
2018-09-25T02:47:15.782Z,4.10
2018-09-25T02:49:49.471Z,4.10
2018-09-25T02:52:23.218Z,4.10
2018-09-25T02:54:57.100Z,4.10
2018-09-25T02:57:30.787Z,4.00
2018-09-25T03:00:04.421Z,4.00
2018-09-25T03:02:38.175Z,4.00
2018-09-25T03:05:11.963Z,4.00
2018-09-25T03:07:45.590Z,4.10
2018-09-25T03:10:19.358Z,4.00
2018-09-25T03:12:53.103Z,4.00
2018-09-25T03:15:26.987Z,3.90
2018-09-25T03:18:00.964Z,3.90
2018-09-25T03:20:34.901Z,3.90
2018-09-25T03:23:08.714Z,3.90
2018-09-25T03:25:42.452Z,3.90
2018-09-25T03:28:16.337Z,3.90
2018-09-25T03:30:50.330Z,3.90
2018-09-25T03:33:24.067Z,3.90
2018-09-25T03:35:57.946Z,3.90
2018-09-25T03:38:31.615Z,3.80
2018-09-25T03:41:05.327Z,3.80
2018-09-25T03:43:39.184Z,3.80
2018-09-25T03:46:13.162Z,3.90
2018-09-25T03:48:46.958Z,3.80
2018-09-25T03:51:20.747Z,3.90
2018-09-25T03:53:54.473Z,3.80
2018-09-25T03:56:28.458Z,3.80
2018-09-25T03:59:02.279Z,3.80
2018-09-25T04:01:36.310Z,3.80
2018-09-25T04:04:10.051Z,3.80
2018-09-25T04:06:43.870Z,3.80
2018-09-25T04:09:17.670Z,3.90
2018-09-25T04:11:51.330Z,3.80
2018-09-25T04:14:24.997Z,3.70
2018-09-25T04:16:58.806Z,3.70
2018-09-25T04:19:32.705Z,3.70
2018-09-25T04:22:06.713Z,3.70
2018-09-25T04:24:40.570Z,3.80
2018-09-25T04:27:14.230Z,3.90
2018-09-25T04:29:48.055Z,3.80
2018-09-25T04:32:21.971Z,3.60
2018-09-25T04:34:55.855Z,3.60
2018-09-25T04:37:29.654Z,3.60
2018-09-25T04:40:03.418Z,3.50
2018-09-25T04:42:36.969Z,3.50
2018-09-25T04:45:11.517Z,3.50
2018-09-25T04:47:45.227Z,3.50
2018-09-25T04:50:19.027Z,3.40
2018-09-25T04:52:52.759Z,3.40
2018-09-25T04:55:26.438Z,3.40
2018-09-25T04:58:00.149Z,3.40
2018-09-25T05:00:33.828Z,3.40
2018-09-25T05:03:07.446Z,3.30
2018-09-25T05:05:41.155Z,3.30
2018-09-25T05:08:14.957Z,3.30
2018-09-25T05:10:48.865Z,3.30
2018-09-25T05:13:22.623Z,3.30
2018-09-25T05:15:56.231Z,3.30
2018-09-25T05:18:29.907Z,3.30
2018-09-25T05:21:03.639Z,3.30
2018-09-25T05:23:37.365Z,3.40
2018-09-25T05:26:11.359Z,3.40
2018-09-25T05:28:45.170Z,3.40
2018-09-25T05:31:18.869Z,3.40
2018-09-25T05:33:52.420Z,3.40
2018-09-25T05:36:26.241Z,3.60
2018-09-25T05:38:59.947Z,3.70
2018-09-25T05:41:33.626Z,3.80
2018-09-25T05:44:07.432Z,3.70
2018-09-25T05:46:41.230Z,3.80
2018-09-25T05:49:14.898Z,3.80
2018-09-25T05:51:48.722Z,3.80
2018-09-25T05:54:22.549Z,3.80
2018-09-25T05:56:56.259Z,3.80
2018-09-25T05:59:29.966Z,3.80
2018-09-25T06:02:03.640Z,3.90
2018-09-25T06:04:37.274Z,3.90
2018-09-25T06:07:11.344Z,4.00
2018-09-25T06:09:45.240Z,4.00
2018-09-25T06:12:18.734Z,4.20
2018-09-25T06:14:52.559Z,4.40
2018-09-25T06:17:26.206Z,4.90
2018-09-25T06:20:00.135Z,5.30
2018-09-25T06:22:33.888Z,5.70
2018-09-25T06:25:07.716Z,6.20
2018-09-25T06:27:41.547Z,6.60
2018-09-25T06:30:15.116Z,6.90
2018-09-25T06:32:48.915Z,7.10
2018-09-25T06:35:22.773Z,7.20
2018-09-25T06:37:56.535Z,7.50
2018-09-25T06:40:30.161Z,7.50
2018-09-25T06:43:03.925Z,7.50
2018-09-25T06:45:37.766Z,7.20
2018-09-25T06:48:11.659Z,7.20
2018-09-25T06:50:45.453Z,7.20
2018-09-25T06:53:19.096Z,7.20
2018-09-25T06:55:52.800Z,7.10
2018-09-25T06:58:26.583Z,7.20
2018-09-25T07:01:00.459Z,7.20
2018-09-25T07:03:34.000Z,7.20
2018-09-25T07:06:07.717Z,7.20
2018-09-25T07:08:41.475Z,7.30
2018-09-25T07:11:15.273Z,7.40
2018-09-25T07:13:49.008Z,7.50
2018-09-25T07:16:22.672Z,7.50
2018-09-25T07:18:56.859Z,7.60
2018-09-25T07:21:30.692Z,7.70
2018-09-25T07:24:04.396Z,7.80
2018-09-25T07:26:38.104Z,7.90
2018-09-25T07:29:11.971Z,7.90
2018-09-25T07:31:45.652Z,8.10
2018-09-25T07:34:19.404Z,8.20
2018-09-25T07:36:53.054Z,8.30
2018-09-25T07:39:26.833Z,8.50
2018-09-25T07:42:00.654Z,8.80
2018-09-25T07:44:34.443Z,8.90
2018-09-25T07:47:08.341Z,8.90
2018-09-25T07:49:42.271Z,9.10
2018-09-25T07:52:16.047Z,9.20
2018-09-25T07:54:49.722Z,9.40
2018-09-25T07:57:23.700Z,9.90
2018-09-25T07:59:57.447Z,11.30
2018-09-25T08:02:31.097Z,12.50
2018-09-25T08:05:04.889Z,13.90
2018-09-25T08:07:38.733Z,15.70
2018-09-25T08:10:12.747Z,14.80
2018-09-25T08:12:46.471Z,15.90
2018-09-25T08:15:20.232Z,15.80
2018-09-25T08:17:54.014Z,16.80
2018-09-25T08:20:27.770Z,15.60
2018-09-25T08:23:01.800Z,16.70
2018-09-25T08:25:35.512Z,17.60
2018-09-25T08:28:09.255Z,18.60
2018-09-25T08:30:42.983Z,20.00
2018-09-25T08:33:16.759Z,21.00
2018-09-25T08:35:50.622Z,21.70
2018-09-25T08:38:24.607Z,20.70
2018-09-25T08:40:58.440Z,21.80
2018-09-25T08:43:32.087Z,21.50
2018-09-25T08:46:05.880Z,22.50
2018-09-25T08:48:39.504Z,23.30
2018-09-25T08:51:13.239Z,21.80
2018-09-25T08:53:47.152Z,22.10
2018-09-25T08:56:20.904Z,22.40
2018-09-25T08:58:54.693Z,21.20
2018-09-25T09:01:28.380Z,21.10
2018-09-25T09:04:02.168Z,19.20
2018-09-25T09:06:35.854Z,20.00
2018-09-25T09:09:12.445Z,19.30
2018-09-25T09:11:46.279Z,19.30
2018-09-25T09:14:20.067Z,20.40
2018-09-25T09:16:53.703Z,20.30
2018-09-25T09:19:27.710Z,20.60
2018-09-25T09:22:01.442Z,20.50
2018-09-25T09:24:35.167Z,21.00
2018-09-25T09:27:08.900Z,19.70
2018-09-25T09:29:42.789Z,20.00
2018-09-25T09:32:16.607Z,21.00
2018-09-25T09:34:50.351Z,21.60
2018-09-25T09:37:24.164Z,22.30
2018-09-25T09:39:57.910Z,24.00
2018-09-25T09:42:31.765Z,23.30
2018-09-25T09:45:05.681Z,22.00
2018-09-25T09:47:39.439Z,22.30
2018-09-25T09:50:13.262Z,21.50
2018-09-25T09:52:47.023Z,22.60
2018-09-25T09:55:20.895Z,21.10
2018-09-25T09:57:54.681Z,21.00
2018-09-25T10:00:28.359Z,20.70
2018-09-25T10:03:02.073Z,21.90
2018-09-25T10:05:35.927Z,24.20
2018-09-25T10:08:09.844Z,25.90
2018-09-25T10:10:43.618Z,25.50
2018-09-25T10:13:17.443Z,24.60
2018-09-25T10:15:51.170Z,25.60
2018-09-25T10:18:24.828Z,24.00
2018-09-25T10:20:58.606Z,25.00
2018-09-25T10:23:32.431Z,26.70
2018-09-25T10:26:06.275Z,27.10
2018-09-25T10:28:40.242Z,24.80
2018-09-25T10:31:14.223Z,25.20
2018-09-25T10:33:47.893Z,26.30
2018-09-25T10:36:21.687Z,27.70
2018-09-25T10:38:55.408Z,25.90
2018-09-25T10:41:29.310Z,25.30
2018-09-25T10:44:02.898Z,23.90
2018-09-25T10:46:36.601Z,23.30
2018-09-25T10:49:10.398Z,22.80
2018-09-25T10:51:44.123Z,22.50
2018-09-25T10:54:17.960Z,21.80
2018-09-25T10:56:51.756Z,21.10
2018-09-25T10:59:25.439Z,21.30
2018-09-25T11:01:59.360Z,20.80
2018-09-25T11:04:33.168Z,20.90
2018-09-25T11:07:06.901Z,21.80
2018-09-25T11:09:40.677Z,21.90
2018-09-25T11:12:14.452Z,20.90
2018-09-25T11:14:48.078Z,21.10
2018-09-25T11:17:21.872Z,20.60
2018-09-25T11:19:55.614Z,20.40
2018-09-25T11:22:29.415Z,19.30
2018-09-25T11:25:03.104Z,18.10
2018-09-25T11:27:36.774Z,18.00
2018-09-25T11:30:10.673Z,18.50
2018-09-25T11:32:44.506Z,18.70
2018-09-25T11:35:18.492Z,18.70
2018-09-25T11:37:52.385Z,16.40
2018-09-25T11:40:26.192Z,16.10
2018-09-25T11:42:59.854Z,15.80
2018-09-25T11:45:33.713Z,16.00
2018-09-25T11:48:07.458Z,16.30
2018-09-25T11:50:41.359Z,16.50
2018-09-25T11:53:15.070Z,17.00
2018-09-25T11:55:49.020Z,17.50
2018-09-25T11:58:22.819Z,17.50
2018-09-25T12:00:56.636Z,17.70
2018-09-25T12:03:30.558Z,16.60
2018-09-25T12:06:04.450Z,16.90
2018-09-25T12:08:38.354Z,17.50
2018-09-25T12:11:12.165Z,16.80
2018-09-25T12:13:46.006Z,16.80
2018-09-25T12:16:19.679Z,16.80
2018-09-25T12:18:53.411Z,16.70
2018-09-25T12:21:27.033Z,16.10
2018-09-25T12:24:00.841Z,15.80
2018-09-25T12:26:34.606Z,16.50
2018-09-25T12:29:08.570Z,16.20
2018-09-25T12:31:42.319Z,16.10
2018-09-25T12:34:16.090Z,16.30
2018-09-25T12:36:50.610Z,16.40
2018-09-25T12:39:24.410Z,16.70
2018-09-25T12:41:58.170Z,15.70
2018-09-25T12:44:31.807Z,15.80
2018-09-25T12:47:05.731Z,16.50
2018-09-25T12:49:39.628Z,16.90
2018-09-25T12:52:13.595Z,16.20
2018-09-25T12:54:47.573Z,15.50
2018-09-25T12:57:21.294Z,15.90
2018-09-25T12:59:55.134Z,16.20
2018-09-25T13:02:28.927Z,16.80
2018-09-25T13:05:02.762Z,17.30
2018-09-25T13:07:36.595Z,17.60
2018-09-25T13:10:11.033Z,17.80
2018-09-25T13:12:44.854Z,18.00
2018-09-25T13:15:18.619Z,18.10
2018-09-25T13:17:52.308Z,17.50
2018-09-25T13:20:26.042Z,17.60
2018-09-25T13:22:59.750Z,18.00
2018-09-25T13:25:33.544Z,17.70
2018-09-25T13:28:07.072Z,17.90
2018-09-25T13:30:40.798Z,17.90
2018-09-25T13:33:14.719Z,18.10
2018-09-25T13:35:48.552Z,18.00
2018-09-25T13:38:22.350Z,17.70
2018-09-25T13:40:56.146Z,17.70
2018-09-25T13:43:29.950Z,17.10
2018-09-25T13:46:03.861Z,16.50
2018-09-25T13:48:37.625Z,16.90
2018-09-25T13:51:11.662Z,17.60
2018-09-25T13:53:45.653Z,17.70
2018-09-25T13:56:19.517Z,17.20
2018-09-25T13:58:53.294Z,17.30
2018-09-25T14:01:27.067Z,17.20
2018-09-25T14:04:00.806Z,17.20
2018-09-25T14:06:34.465Z,17.30
2018-09-25T14:09:08.313Z,17.20
2018-09-25T14:11:42.091Z,17.00
2018-09-25T14:14:15.720Z,16.90
2018-09-25T14:16:49.519Z,17.00
2018-09-25T14:19:23.227Z,16.90
2018-09-25T14:22:04.145Z,17.00
2018-09-25T14:24:37.835Z,17.00
2018-09-25T14:27:11.575Z,16.90
2018-09-25T14:29:45.412Z,17.10
2018-09-25T14:32:19.231Z,17.10
2018-09-25T14:34:53.191Z,16.80
2018-09-25T14:37:27.037Z,16.60
2018-09-25T14:40:00.761Z,16.70
2018-09-25T14:42:34.447Z,16.30
2018-09-25T14:45:08.266Z,16.30
2018-09-25T14:47:42.156Z,16.60
2018-09-25T14:50:15.877Z,16.00
2018-09-25T14:52:49.678Z,16.20
2018-09-25T14:55:23.425Z,16.00
2018-09-25T14:57:57.153Z,16.30
2018-09-25T15:00:31.061Z,16.40
2018-09-25T15:03:05.007Z,16.40
2018-09-25T15:05:38.994Z,16.50
2018-09-25T15:08:12.688Z,16.70
2018-09-25T15:10:46.589Z,16.40
2018-09-25T15:13:20.338Z,16.30
2018-09-25T15:15:54.240Z,16.60
2018-09-25T15:18:27.850Z,16.20
2018-09-25T15:21:01.586Z,16.30
2018-09-25T15:23:35.462Z,16.20
2018-09-25T15:26:09.173Z,15.80
2018-09-25T15:28:43.023Z,15.90
2018-09-25T15:31:16.771Z,15.90
2018-09-25T15:33:50.428Z,15.50
2018-09-25T15:36:24.175Z,15.30
2018-09-25T15:38:57.943Z,15.40
2018-09-25T15:41:31.987Z,14.80
2018-09-25T15:44:06.166Z,14.60
2018-09-25T15:46:40.349Z,14.50
2018-09-25T15:49:14.163Z,14.90
2018-09-25T15:51:47.954Z,15.10
2018-09-25T15:54:21.897Z,15.20
2018-09-25T15:56:55.690Z,15.10
2018-09-25T15:59:29.389Z,15.20
2018-09-25T16:02:03.382Z,15.20
2018-09-25T16:04:37.007Z,15.00
2018-09-25T16:07:10.941Z,14.80
2018-09-25T16:09:44.689Z,14.50
2018-09-25T16:12:18.301Z,14.20
2018-09-25T16:14:52.226Z,14.20
2018-09-25T16:17:26.021Z,14.40
2018-09-25T16:19:59.869Z,14.30
2018-09-25T16:22:33.759Z,14.30
2018-09-25T16:25:07.618Z,14.30
2018-09-25T16:27:41.545Z,14.20
2018-09-25T16:30:15.329Z,13.90
2018-09-25T16:32:49.149Z,13.80
2018-09-25T16:35:23.162Z,13.40
2018-09-25T16:37:56.945Z,13.20
2018-09-25T16:40:30.750Z,13.20
2018-09-25T16:43:04.628Z,13.10
2018-09-25T16:45:38.338Z,12.80
2018-09-25T16:48:12.098Z,12.80
2018-09-25T16:50:46.126Z,12.70
2018-09-25T16:53:20.035Z,12.70
2018-09-25T16:55:53.674Z,12.40
2018-09-25T16:58:27.792Z,12.30
2018-09-25T17:01:01.590Z,12.20
2018-09-25T17:03:35.314Z,12.00
2018-09-25T17:06:09.163Z,11.90
2018-09-25T17:08:42.856Z,11.70
2018-09-25T17:11:16.687Z,11.60
2018-09-25T17:13:50.659Z,11.50
2018-09-25T17:16:24.282Z,11.50
2018-09-25T17:18:58.120Z,11.20
2018-09-25T17:21:31.837Z,11.20
2018-09-25T17:24:05.839Z,11.00
2018-09-25T17:26:39.660Z,10.90
2018-09-25T17:29:13.545Z,10.80
2018-09-25T17:31:47.201Z,10.70
2018-09-25T17:34:20.897Z,10.60
2018-09-25T17:36:54.643Z,10.60
2018-09-25T17:39:28.591Z,10.40
2018-09-25T17:42:02.470Z,10.30
2018-09-25T17:44:36.225Z,10.30
2018-09-25T17:47:10.066Z,10.20
2018-09-25T17:49:43.851Z,10.20
2018-09-25T17:52:17.553Z,10.10
2018-09-25T17:54:51.369Z,10.00
2018-09-25T17:57:25.145Z,9.90
2018-09-25T17:59:58.842Z,9.90
2018-09-25T18:02:32.608Z,9.90
2018-09-25T18:05:06.369Z,9.80
2018-09-25T18:07:40.167Z,9.70
2018-09-25T18:10:13.943Z,9.60
2018-09-25T18:12:47.597Z,9.60
2018-09-25T18:15:21.221Z,9.50
2018-09-25T18:17:55.047Z,9.50
2018-09-25T18:20:28.701Z,9.30
2018-09-25T18:23:02.554Z,9.20
2018-09-25T18:25:36.296Z,9.20
2018-09-25T18:28:10.329Z,9.10
2018-09-25T18:30:44.127Z,9.20
2018-09-25T18:33:18.015Z,9.10
2018-09-25T18:35:51.788Z,9.00
2018-09-25T18:38:25.659Z,9.00
2018-09-25T18:40:59.457Z,8.90
2018-09-25T18:43:33.461Z,9.00
2018-09-25T18:46:07.114Z,8.90
2018-09-25T18:48:41.238Z,8.80
2018-09-25T18:51:15.013Z,8.70
2018-09-25T18:53:48.735Z,8.70
2018-09-25T18:56:22.509Z,8.60
2018-09-25T18:58:56.260Z,8.70
2018-09-25T19:01:30.199Z,8.60
2018-09-25T19:04:03.963Z,8.50
2018-09-25T19:06:37.898Z,8.50
2018-09-25T19:09:14.002Z,8.40
2018-09-25T19:11:47.926Z,8.40
2018-09-25T19:14:21.765Z,8.40
2018-09-25T19:16:55.423Z,8.30
2018-09-25T19:19:29.401Z,8.40
2018-09-25T19:22:03.287Z,8.30
2018-09-25T19:24:37.136Z,8.30
2018-09-25T19:27:10.838Z,8.30
2018-09-25T19:29:44.680Z,8.30
2018-09-25T19:32:18.404Z,8.30
2018-09-25T19:34:52.267Z,8.40
2018-09-25T19:37:26.137Z,8.30
2018-09-25T19:39:59.997Z,8.20
2018-09-25T19:42:33.731Z,8.10
2018-09-25T19:45:07.555Z,8.00
2018-09-25T19:47:41.454Z,8.00
2018-09-25T19:50:15.125Z,8.00
2018-09-25T19:52:49.003Z,8.00
2018-09-25T19:55:22.686Z,8.00
2018-09-25T19:57:56.316Z,8.00
2018-09-25T20:00:30.061Z,7.90
2018-09-25T20:03:03.787Z,8.00
2018-09-25T20:05:37.434Z,7.90
2018-09-25T20:08:11.170Z,7.90
2018-09-25T20:10:44.802Z,7.80
2018-09-25T20:13:18.465Z,7.80
2018-09-25T20:15:52.231Z,7.80
2018-09-25T20:18:25.924Z,7.70
2018-09-25T20:20:59.622Z,7.70
2018-09-25T20:23:33.391Z,7.70
2018-09-25T20:26:07.350Z,7.70
2018-09-25T20:28:41.255Z,7.70
2018-09-25T20:31:15.180Z,7.70
2018-09-25T20:33:48.949Z,7.70
2018-09-25T20:36:22.694Z,7.60
2018-09-25T20:38:56.571Z,7.70
2018-09-25T20:41:30.460Z,7.70
2018-09-25T20:44:04.414Z,7.60
2018-09-25T20:46:38.168Z,7.60
2018-09-25T20:49:12.130Z,7.60
2018-09-25T20:51:45.732Z,7.60
2018-09-25T20:54:19.509Z,7.60
2018-09-25T20:56:53.479Z,7.70
2018-09-25T20:59:27.148Z,7.70
2018-09-25T21:02:01.004Z,7.70
2018-09-25T21:04:34.682Z,7.70
2018-09-25T21:07:08.551Z,7.50
2018-09-25T21:09:42.343Z,7.40
2018-09-25T21:12:16.179Z,7.30
2018-09-25T21:14:49.894Z,7.30
2018-09-25T21:17:23.779Z,7.20
2018-09-25T21:19:57.709Z,7.20
2018-09-25T21:22:31.630Z,7.20
2018-09-25T21:25:05.456Z,7.10
2018-09-25T21:27:39.376Z,7.00
2018-09-25T21:30:13.137Z,7.00
2018-09-25T21:32:46.788Z,7.10
2018-09-25T21:35:20.548Z,7.10
2018-09-25T21:37:54.241Z,7.10
2018-09-25T21:40:28.135Z,7.00
2018-09-25T21:43:01.877Z,7.00
2018-09-25T21:45:35.767Z,7.00
2018-09-25T21:48:09.596Z,7.00
2018-09-25T21:50:43.343Z,7.00
2018-09-25T21:53:17.322Z,7.00
2018-09-25T21:55:50.982Z,7.00
2018-09-25T21:58:24.696Z,7.00
2018-09-25T22:00:58.339Z,7.00
2018-09-25T22:03:31.999Z,7.00
2018-09-25T22:06:05.915Z,7.00
2018-09-25T22:08:39.725Z,7.00
2018-09-25T22:11:13.651Z,7.00
2018-09-25T22:13:47.395Z,7.00
2018-09-25T22:16:21.339Z,6.90
2018-09-25T22:18:55.221Z,6.90
2018-09-25T22:21:28.927Z,6.80
2018-09-25T22:24:02.857Z,6.70
2018-09-25T22:26:36.769Z,6.60
2018-09-25T22:29:10.530Z,6.50
2018-09-25T22:31:44.343Z,6.50
2018-09-25T22:34:18.142Z,6.40
2018-09-25T22:36:52.022Z,6.40
2018-09-25T22:39:25.844Z,6.30
2018-09-25T22:41:59.687Z,6.20
2018-09-25T22:44:33.452Z,6.10
2018-09-25T22:47:07.177Z,6.10
2018-09-25T22:49:40.774Z,6.00
2018-09-25T22:52:14.585Z,6.00
2018-09-25T22:54:48.425Z,5.80
2018-09-25T22:57:22.158Z,5.80
2018-09-25T22:59:55.937Z,5.70
2018-09-25T23:02:29.622Z,5.50
2018-09-25T23:05:03.268Z,5.50
2018-09-25T23:07:37.060Z,5.40
2018-09-25T23:10:11.001Z,5.30
2018-09-25T23:12:44.844Z,5.30
2018-09-25T23:15:18.594Z,5.20
2018-09-25T23:17:52.555Z,5.20
2018-09-25T23:20:26.359Z,5.10
2018-09-25T23:23:00.151Z,5.10
2018-09-25T23:25:33.938Z,5.00
2018-09-25T23:28:07.687Z,4.80
2018-09-25T23:30:41.551Z,4.80
2018-09-25T23:33:15.257Z,4.70
2018-09-25T23:35:49.055Z,4.70
2018-09-25T23:38:22.918Z,4.70
2018-09-25T23:41:57.389Z,4.70
2018-09-25T23:44:49.107Z,4.60
2018-09-25T23:47:35.169Z,4.50
2018-09-25T23:50:06.150Z,4.50
2018-09-25T23:52:40.999Z,4.50
2018-09-25T23:55:44.789Z,4.50
2018-09-25T23:58:17.106Z,4.50
